Airfield :
LOGIN :

Register | Disclaimer

   EN    FR    IT 

 










Legend :    VFR   Marginal VFR   IFR   Intensive IFR   Very Intensive IFR
Visi :
Ceiling :
>= 8 km
>= 3000ft
5 to 8 km
1000 to 3000 ft
1500m to 5 km
500 to 1000 ft
800 to 1500m
200 to 500 ft
< 800m
< 200 ft
Symbols :   Thunderstorms  Fog  Heavy snow  Heavy precipitations  Wind > 20 kt
SIGMETs :     Misc.  Thunderstorms  Icing  Turbulence  Mountain Waves  Volcanic Ashes






- Airport Elevation : 587 ft
- IATA code : XCR


LFOK - Chalons Vatry

CURRENT METAR :
  • 171900Z AUTO 36004KT 0550 0400 R10/1000U R28/0900U FG VV/// 02/02 Q1038 BECMG 2000 BR BKN003 OVC008

EXPIRED METARs :
  • 171830Z AUTO 04003KT 1300 0650 R10/2400D R28/1700U BCFG FEW008 SCT015 03/03 Q1038 BECMG 2000 BR BKN003 OVC008
  • 171800Z AUTO 08002KT 3100 BR SCT020 04/04 Q1038 BECMG OVC010
  • 171730Z AUTO 05002KT 4500 BR BKN021 04/04 Q1038 TEMPO 5000 BKN007
  • 171700Z AUTO 02005KT 6000 FEW006 BKN010 OVC020 04/04 Q1038 NOSIG
  • 171630Z AUTO 35003KT 9999 OVC014 05/04 Q1038 TEMPO BKN007

TAF AMD TAF LFOK
Valid from the 17 at 18:00 until the 18 at 18:00 UTC


171851Z 1718/1818 VRB03KT 2000 BR SCT008 BKN014
TEMPO 1718/1724 BKN003 OVC006
PROB40 1719/1809 0500 FG VV///
BECMG 1810/1813 05010KT 9999 NSW OVC008



MET'MAP, your aeronautical weather chart ! - Copyright ORBIFLY December 2007 - Disclaimer

ORBIFLY MET'MAP TEAM :

Programming & Development : Alexandra Zaïnal
Concept & original design : Baudouin d'Aumeries
Assistance for programming : Marc-Olivier Méhu
Technical & hardware support : Manuel Goepfert

Contact : metmap@orbifly.com




SOURCES & CREDITS :

   NOAA